Terminal Aerodrome Forecast
Issued by NWS

Home | Current Version | Previous Version | Text Only | Print | Product List | Glossary On
Versions: 1 2 3 4 5 6 7 8 9 10 11 12 13 14
000
FTUS43 KGRB 161100
TAFATW
TAF
KATW 161120Z 1612/1712 05005KT P6SM SCT150
     FM161300 13004KT P6SM SCT060 SCT110
     FM162000 14005KT P6SM SCT100
     FM170000 20004KT P6SM SCT070=

USA.gov is the U.S. government's official web portal to all federal, state and local government web resources and services.